sensor_id;sensor_type;location;lat;lon;timestamp;temperature;humidity
45491;DHT22;31237;45.586;13.782;2022-08-11T00:00:42;21.50;52.00
45491;DHT22;31237;45.586;13.782;2022-08-11T00:03:11;21.40;52.00
45491;DHT22;31237;45.586;13.782;2022-08-11T00:05:46;21.40;52.10
45491;DHT22;31237;45.586;13.782;2022-08-11T00:08:26;21.40;52.20
45491;DHT22;31237;45.586;13.782;2022-08-11T00:11:02;21.30;52.30
45491;DHT22;31237;45.586;13.782;2022-08-11T00:16:03;21.20;52.40
45491;DHT22;31237;45.586;13.782;2022-08-11T00:18:40;21.20;52.60
45491;DHT22;31237;45.586;13.782;2022-08-11T00:21:07;21.10;52.60
45491;DHT22;31237;45.586;13.782;2022-08-11T00:23:40;21.00;52.70
45491;DHT22;31237;45.586;13.782;2022-08-11T00:26:06;21.00;52.80
45491;DHT22;31237;45.586;13.782;2022-08-11T00:28:33;21.00;52.90
45491;DHT22;31237;45.586;13.782;2022-08-11T00:31:05;21.00;53.00
45491;DHT22;31237;45.586;13.782;2022-08-11T00:33:36;20.90;53.00
45491;DHT22;31237;45.586;13.782;2022-08-11T00:36:04;20.90;53.00
45491;DHT22;31237;45.586;13.782;2022-08-11T00:38:33;20.90;53.10
45491;DHT22;31237;45.586;13.782;2022-08-11T00:44:29;20.90;53.10
45491;DHT22;31237;45.586;13.782;2022-08-11T00:49:38;20.80;53.00
45491;DHT22;31237;45.586;13.782;2022-08-11T01:00:23;20.90;53.00
45491;DHT22;31237;45.586;13.782;2022-08-11T01:19:50;20.70;53.20
45491;DHT22;31237;45.586;13.782;2022-08-11T01:40:14;20.90;52.50
45491;DHT22;31237;45.586;13.782;2022-08-11T01:49:18;21.10;51.80
45491;DHT22;31237;45.586;13.782;2022-08-11T01:59:50;21.20;51.30
45491;DHT22;31237;45.586;13.782;2022-08-11T02:02:27;21.20;51.30
45491;DHT22;31237;45.586;13.782;2022-08-11T02:10:54;21.20;51.20
45491;DHT22;31237;45.586;13.782;2022-08-11T02:14:12;21.10;51.10
45491;DHT22;31237;45.586;13.782;2022-08-11T02:22:35;21.10;51.10
45491;DHT22;31237;45.586;13.782;2022-08-11T02:28:18;21.00;51.10
45491;DHT22;31237;45.586;13.782;2022-08-11T02:31:08;21.00;51.20
45491;DHT22;31237;45.586;13.782;2022-08-11T02:36:55;20.90;51.40
45491;DHT22;31237;45.586;13.782;2022-08-11T02:39:30;20.80;51.40
45491;DHT22;31237;45.586;13.782;2022-08-11T02:42:25;20.80;51.40
45491;DHT22;31237;45.586;13.782;2022-08-11T02:45:33;20.80;51.20
45491;DHT22;31237;45.586;13.782;2022-08-11T02:48:12;20.80;51.10
45491;DHT22;31237;45.586;13.782;2022-08-11T02:51:05;20.70;51.00
45491;DHT22;31237;45.586;13.782;2022-08-11T02:53:41;20.70;50.90
45491;DHT22;31237;45.586;13.782;2022-08-11T02:59:05;20.70;50.80
45491;DHT22;31237;45.586;13.782;2022-08-11T03:10:35;20.80;50.10
45491;DHT22;31237;45.586;13.782;2022-08-11T03:13:30;20.90;49.90
45491;DHT22;31237;45.586;13.782;2022-08-11T03:22:24;20.90;49.60
45491;DHT22;31237;45.586;13.782;2022-08-11T03:25:31;20.90;49.60
45491;DHT22;31237;45.586;13.782;2022-08-11T03:33:42;20.90;49.50
45491;DHT22;31237;45.586;13.782;2022-08-11T03:45:33;21.00;49.30
45491;DHT22;31237;45.586;13.782;2022-08-11T04:05:18;21.20;48.80
45491;DHT22;31237;45.586;13.782;2022-08-11T04:27:38;21.30;48.50
45491;DHT22;31237;45.586;13.782;2022-08-11T04:30:32;21.30;48.40
45491;DHT22;31237;45.586;13.782;2022-08-11T04:33:28;21.30;48.40
45491;DHT22;31237;45.586;13.782;2022-08-11T04:42:12;21.50;48.40
45491;DHT22;31237;45.586;13.782;2022-08-11T04:51:17;21.60;48.20
45491;DHT22;31237;45.586;13.782;2022-08-11T04:57:07;21.70;48.00
45491;DHT22;31237;45.586;13.782;2022-08-11T05:00:06;21.80;47.90
45491;DHT22;31237;45.586;13.782;2022-08-11T05:14:48;22.10;47.50
45491;DHT22;31237;45.586;13.782;2022-08-11T05:20:21;22.20;47.40
45491;DHT22;31237;45.586;13.782;2022-08-11T05:23:07;22.30;47.20
45491;DHT22;31237;45.586;13.782;2022-08-11T05:25:55;22.30;47.10
45491;DHT22;31237;45.586;13.782;2022-08-11T05:28:54;22.40;47.00
45491;DHT22;31237;45.586;13.782;2022-08-11T05:31:42;22.50;47.10
45491;DHT22;31237;45.586;13.782;2022-08-11T05:34:51;22.50;46.90
45491;DHT22;31237;45.586;13.782;2022-08-11T05:40:18;22.70;46.80
45491;DHT22;31237;45.586;13.782;2022-08-11T05:43:11;22.80;46.80
45491;DHT22;31237;45.586;13.782;2022-08-11T05:46:01;22.80;46.70
45491;DHT22;31237;45.586;13.782;2022-08-11T05:48:47;22.90;46.60
45491;DHT22;31237;45.586;13.782;2022-08-11T05:51:45;23.00;46.50
45491;DHT22;31237;45.586;13.782;2022-08-11T05:54:30;23.10;46.40
45491;DHT22;31237;45.586;13.782;2022-08-11T05:57:22;23.10;46.10
45491;DHT22;31237;45.586;13.782;2022-08-11T06:00:01;23.20;46.10
45491;DHT22;31237;45.586;13.782;2022-08-11T06:02:29;23.30;46.20
45491;DHT22;31237;45.586;13.782;2022-08-11T06:04:59;23.40;46.00
45491;DHT22;31237;45.586;13.782;2022-08-11T06:07:27;23.40;45.80
45491;DHT22;31237;45.586;13.782;2022-08-11T06:09:55;23.50;45.70
45491;DHT22;31237;45.586;13.782;2022-08-11T06:14:53;23.70;45.60
45491;DHT22;31237;45.586;13.782;2022-08-11T06:17:29;23.80;45.40
45491;DHT22;31237;45.586;13.782;2022-08-11T06:20:08;23.90;45.20
45491;DHT22;31237;45.586;13.782;2022-08-11T06:22:38;24.00;45.00
45491;DHT22;31237;45.586;13.782;2022-08-11T06:25:07;24.00;44.80
45491;DHT22;31237;45.586;13.782;2022-08-11T06:27:34;24.10;44.80
45491;DHT22;31237;45.586;13.782;2022-08-11T06:30:04;24.20;44.70
45491;DHT22;31237;45.586;13.782;2022-08-11T06:32:44;24.20;44.60
45491;DHT22;31237;45.586;13.782;2022-08-11T06:36:15;24.30;44.60
45491;DHT22;31237;45.586;13.782;2022-08-11T06:46:44;24.70;44.10
45491;DHT22;31237;45.586;13.782;2022-08-11T06:49:13;24.70;43.80
45491;DHT22;31237;45.586;13.782;2022-08-11T06:52:03;24.80;43.80
45491;DHT22;31237;45.586;13.782;2022-08-11T06:54:32;24.90;43.60
45491;DHT22;31237;45.586;13.782;2022-08-11T06:56:59;25.00;43.30
45491;DHT22;31237;45.586;13.782;2022-08-11T06:59:47;25.10;43.20
45491;DHT22;31237;45.586;13.782;2022-08-11T07:05:20;25.30;43.10
45491;DHT22;31237;45.586;13.782;2022-08-11T07:13:58;25.70;42.70
45491;DHT22;31237;45.586;13.782;2022-08-11T07:16:47;25.90;42.30
45491;DHT22;31237;45.586;13.782;2022-08-11T07:19:16;26.00;42.00
45491;DHT22;31237;45.586;13.782;2022-08-11T07:22:03;26.10;41.90
45491;DHT22;31237;45.586;13.782;2022-08-11T07:27:47;26.30;41.50
45491;DHT22;31237;45.586;13.782;2022-08-11T07:30:36;26.40;41.40
45491;DHT22;31237;45.586;13.782;2022-08-11T07:33:04;26.50;41.50
45491;DHT22;31237;45.586;13.782;2022-08-11T07:35:34;26.60;41.30
45491;DHT22;31237;45.586;13.782;2022-08-11T07:38:06;26.80;40.90
45491;DHT22;31237;45.586;13.782;2022-08-11T07:40:34;26.90;40.50
45491;DHT22;31237;45.586;13.782;2022-08-11T07:43:02;27.00;40.40
45491;DHT22;31237;45.586;13.782;2022-08-11T07:45:29;27.00;40.20
45491;DHT22;31237;45.586;13.782;2022-08-11T07:48:14;27.20;40.10
45491;DHT22;31237;45.586;13.782;2022-08-11T07:51:00;27.30;40.00
45491;DHT22;31237;45.586;13.782;2022-08-11T07:53:45;27.30;39.70
45491;DHT22;31237;45.586;13.782;2022-08-11T07:56:11;27.50;39.30
45491;DHT22;31237;45.586;13.782;2022-08-11T07:58:40;27.50;39.10
45491;DHT22;31237;45.586;13.782;2022-08-11T08:01:25;27.60;38.90
45491;DHT22;31237;45.586;13.782;2022-08-11T08:04:13;27.70;38.70
45491;DHT22;31237;45.586;13.782;2022-08-11T08:07:00;27.80;38.50
45491;DHT22;31237;45.586;13.782;2022-08-11T08:09:47;28.00;38.50
45491;DHT22;31237;45.586;13.782;2022-08-11T08:12:32;28.10;38.30
45491;DHT22;31237;45.586;13.782;2022-08-11T08:15:19;28.20;37.90
45491;DHT22;31237;45.586;13.782;2022-08-11T08:18:04;28.30;37.90
45491;DHT22;31237;45.586;13.782;2022-08-11T08:20:37;28.40;37.80
45491;DHT22;31237;45.586;13.782;2022-08-11T08:23:04;28.60;37.70
45491;DHT22;31237;45.586;13.782;2022-08-11T08:25:35;28.80;36.40
45491;DHT22;31237;45.586;13.782;2022-08-11T08:28:04;28.80;36.40
45491;DHT22;31237;45.586;13.782;2022-08-11T08:30:31;28.90;36.50
45491;DHT22;31237;45.586;13.782;2022-08-11T08:33:13;29.00;36.20
45491;DHT22;31237;45.586;13.782;2022-08-11T08:35:41;29.10;35.70
45491;DHT22;31237;45.586;13.782;2022-08-11T08:38:08;29.20;35.80
45491;DHT22;31237;45.586;13.782;2022-08-11T08:40:35;29.20;35.80
45491;DHT22;31237;45.586;13.782;2022-08-11T08:43:06;29.30;35.70
45491;DHT22;31237;45.586;13.782;2022-08-11T08:45:36;29.40;35.50
45491;DHT22;31237;45.586;13.782;2022-08-11T08:48:07;29.50;35.50
45491;DHT22;31237;45.586;13.782;2022-08-11T08:50:37;29.70;35.10
45491;DHT22;31237;45.586;13.782;2022-08-11T08:53:27;29.80;34.90
45491;DHT22;31237;45.586;13.782;2022-08-11T08:55:59;29.90;34.50
45491;DHT22;31237;45.586;13.782;2022-08-11T08:58:26;29.90;34.20
45491;DHT22;31237;45.586;13.782;2022-08-11T09:00:53;30.00;33.70
45491;DHT22;31237;45.586;13.782;2022-08-11T09:03:21;30.10;33.90
45491;DHT22;31237;45.586;13.782;2022-08-11T09:05:47;30.10;33.70
45491;DHT22;31237;45.586;13.782;2022-08-11T09:08:16;30.20;33.70
45491;DHT22;31237;45.586;13.782;2022-08-11T09:10:46;30.20;33.60
45491;DHT22;31237;45.586;13.782;2022-08-11T09:13:33;30.30;33.60
45491;DHT22;31237;45.586;13.782;2022-08-11T09:16:01;30.40;34.10
45491;DHT22;31237;45.586;13.782;2022-08-11T09:18:27;30.40;33.30
45491;DHT22;31237;45.586;13.782;2022-08-11T09:20:54;30.50;33.20
45491;DHT22;31237;45.586;13.782;2022-08-11T09:23:21;30.60;32.60
45491;DHT22;31237;45.586;13.782;2022-08-11T09:26:05;30.60;32.70
45491;DHT22;31237;45.586;13.782;2022-08-11T09:28:52;30.80;32.50
45491;DHT22;31237;45.586;13.782;2022-08-11T09:31:18;30.90;32.10
45491;DHT22;31237;45.586;13.782;2022-08-11T09:33:49;31.00;32.00
45491;DHT22;31237;45.586;13.782;2022-08-11T09:36:17;31.20;31.70
45491;DHT22;31237;45.586;13.782;2022-08-11T09:39:04;31.20;31.60
45491;DHT22;31237;45.586;13.782;2022-08-11T09:41:48;31.30;31.20
45491;DHT22;31237;45.586;13.782;2022-08-11T09:44:16;31.40;30.80
45491;DHT22;31237;45.586;13.782;2022-08-11T09:47:01;31.40;30.80
45491;DHT22;31237;45.586;13.782;2022-08-11T09:49:30;31.40;30.70
45491;DHT22;31237;45.586;13.782;2022-08-11T09:51:57;31.60;30.50
45491;DHT22;31237;45.586;13.782;2022-08-11T09:54:24;31.70;30.00
45491;DHT22;31237;45.586;13.782;2022-08-11T09:56:54;31.80;30.10
45491;DHT22;31237;45.586;13.782;2022-08-11T09:59:39;31.90;29.90
45491;DHT22;31237;45.586;13.782;2022-08-11T10:02:06;32.00;30.00
45491;DHT22;31237;45.586;13.782;2022-08-11T10:04:42;32.10;29.70
45491;DHT22;31237;45.586;13.782;2022-08-11T10:07:12;32.10;29.30
45491;DHT22;31237;45.586;13.782;2022-08-11T10:09:50;32.10;29.50
45491;DHT22;31237;45.586;13.782;2022-08-11T10:12:23;32.20;29.40
45491;DHT22;31237;45.586;13.782;2022-08-11T10:14:55;32.20;29.50
45491;DHT22;31237;45.586;13.782;2022-08-11T10:17:47;32.20;29.50
45491;DHT22;31237;45.586;13.782;2022-08-11T10:20:34;32.40;29.30
45491;DHT22;31237;45.586;13.782;2022-08-11T10:23:02;32.40;28.90
45491;DHT22;31237;45.586;13.782;2022-08-11T10:25:48;32.20;28.90
45491;DHT22;31237;45.586;13.782;2022-08-11T10:28:34;32.10;29.10
45491;DHT22;31237;45.586;13.782;2022-08-11T10:31:04;32.00;29.20
45491;DHT22;31237;45.586;13.782;2022-08-11T10:33:57;32.20;28.80
45491;DHT22;31237;45.586;13.782;2022-08-11T10:36:46;32.30;28.60
45491;DHT22;31237;45.586;13.782;2022-08-11T10:39:17;32.30;28.30
45491;DHT22;31237;45.586;13.782;2022-08-11T10:41:47;32.30;28.30
45491;DHT22;31237;45.586;13.782;2022-08-11T10:44:40;32.10;28.10
45491;DHT22;31237;45.586;13.782;2022-08-11T10:47:10;31.90;28.20
45491;DHT22;31237;45.586;13.782;2022-08-11T10:49:56;31.70;28.40
45491;DHT22;31237;45.586;13.782;2022-08-11T10:52:42;31.60;28.50
45491;DHT22;31237;45.586;13.782;2022-08-11T10:55:28;31.70;28.60
45491;DHT22;31237;45.586;13.782;2022-08-11T10:58:12;31.90;28.80
45491;DHT22;31237;45.586;13.782;2022-08-11T11:00:58;32.00;28.60
45491;DHT22;31237;45.586;13.782;2022-08-11T11:03:29;32.20;28.60
45491;DHT22;31237;45.586;13.782;2022-08-11T11:08:32;32.00;28.40
45491;DHT22;31237;45.586;13.782;2022-08-11T11:11:19;32.20;28.70
45491;DHT22;31237;45.586;13.782;2022-08-11T11:13:49;32.30;28.50
45491;DHT22;31237;45.586;13.782;2022-08-11T11:16:36;32.50;28.70
45491;DHT22;31237;45.586;13.782;2022-08-11T11:19:18;32.60;28.40
45491;DHT22;31237;45.586;13.782;2022-08-11T11:21:50;32.50;28.40
45491;DHT22;31237;45.586;13.782;2022-08-11T11:24:46;32.30;28.40
45491;DHT22;31237;45.586;13.782;2022-08-11T11:27:37;32.00;28.70
45491;DHT22;31237;45.586;13.782;2022-08-11T11:30:09;31.80;29.10
45491;DHT22;31237;45.586;13.782;2022-08-11T11:32:58;31.80;29.00
45491;DHT22;31237;45.586;13.782;2022-08-11T11:38:20;31.90;29.10
45491;DHT22;31237;45.586;13.782;2022-08-11T11:40:46;32.00;29.20
45491;DHT22;31237;45.586;13.782;2022-08-11T11:43:32;32.00;28.90
45491;DHT22;31237;45.586;13.782;2022-08-11T11:46:00;32.10;29.10
45491;DHT22;31237;45.586;13.782;2022-08-11T11:48:27;32.00;29.10
45491;DHT22;31237;45.586;13.782;2022-08-11T11:50:54;32.10;29.40
45491;DHT22;31237;45.586;13.782;2022-08-11T11:53:20;32.20;29.50
45491;DHT22;31237;45.586;13.782;2022-08-11T11:55:47;32.20;29.30
45491;DHT22;31237;45.586;13.782;2022-08-11T11:58:13;32.30;29.30
45491;DHT22;31237;45.586;13.782;2022-08-11T12:01:01;32.40;29.20
45491;DHT22;31237;45.586;13.782;2022-08-11T12:03:48;32.30;29.20
45491;DHT22;31237;45.586;13.782;2022-08-11T12:06:16;32.30;29.20
45491;DHT22;31237;45.586;13.782;2022-08-11T12:08:43;32.30;29.30
45491;DHT22;31237;45.586;13.782;2022-08-11T12:11:12;32.40;29.30
45491;DHT22;31237;45.586;13.782;2022-08-11T12:14:02;32.40;29.20
45491;DHT22;31237;45.586;13.782;2022-08-11T12:16:29;32.50;29.00
45491;DHT22;31237;45.586;13.782;2022-08-11T12:19:00;32.50;29.10
45491;DHT22;31237;45.586;13.782;2022-08-11T12:21:29;32.50;29.10
45491;DHT22;31237;45.586;13.782;2022-08-11T12:23:57;32.40;29.10
45491;DHT22;31237;45.586;13.782;2022-08-11T12:26:43;32.50;29.20
45491;DHT22;31237;45.586;13.782;2022-08-11T12:29:13;32.50;29.40
45491;DHT22;31237;45.586;13.782;2022-08-11T12:31:40;32.60;29.50
45491;DHT22;31237;45.586;13.782;2022-08-11T12:34:11;32.70;29.30
45491;DHT22;31237;45.586;13.782;2022-08-11T12:36:43;32.70;29.30
45491;DHT22;31237;45.586;13.782;2022-08-11T12:39:12;32.80;29.20
45491;DHT22;31237;45.586;13.782;2022-08-11T12:41:43;32.80;29.00
45491;DHT22;31237;45.586;13.782;2022-08-11T12:44:28;32.80;29.10
45491;DHT22;31237;45.586;13.782;2022-08-11T12:47:16;32.80;29.50
45491;DHT22;31237;45.586;13.782;2022-08-11T12:49:48;32.70;29.00
45491;DHT22;31237;45.586;13.782;2022-08-11T12:52:44;32.70;29.20
45491;DHT22;31237;45.586;13.782;2022-08-11T12:55:16;32.70;29.10
45491;DHT22;31237;45.586;13.782;2022-08-11T12:58:06;32.70;28.90
45491;DHT22;31237;45.586;13.782;2022-08-11T13:00:43;32.60;29.00
45491;DHT22;31237;45.586;13.782;2022-08-11T13:03:28;32.60;29.00
45491;DHT22;31237;45.586;13.782;2022-08-11T13:06:13;32.60;29.10
45491;DHT22;31237;45.586;13.782;2022-08-11T13:08:40;32.60;29.10
45491;DHT22;31237;45.586;13.782;2022-08-11T13:11:08;32.60;29.00
45491;DHT22;31237;45.586;13.782;2022-08-11T13:13:53;32.60;29.00
45491;DHT22;31237;45.586;13.782;2022-08-11T13:16:23;32.50;29.00
45491;DHT22;31237;45.586;13.782;2022-08-11T13:18:50;32.40;29.00
45491;DHT22;31237;45.586;13.782;2022-08-11T13:21:17;32.30;28.80
45491;DHT22;31237;45.586;13.782;2022-08-11T13:23:44;32.20;28.90
45491;DHT22;31237;45.586;13.782;2022-08-11T13:26:10;32.20;29.00
45491;DHT22;31237;45.586;13.782;2022-08-11T13:28:36;32.00;28.90
45491;DHT22;31237;45.586;13.782;2022-08-11T13:31:04;32.00;29.10
45491;DHT22;31237;45.586;13.782;2022-08-11T13:33:49;31.90;29.20
45491;DHT22;31237;45.586;13.782;2022-08-11T13:36:21;31.80;29.40
45491;DHT22;31237;45.586;13.782;2022-08-11T13:38:52;31.80;29.20
45491;DHT22;31237;45.586;13.782;2022-08-11T13:41:19;31.70;29.30
45491;DHT22;31237;45.586;13.782;2022-08-11T13:44:07;31.60;29.40
45491;DHT22;31237;45.586;13.782;2022-08-11T13:46:34;31.60;29.50
45491;DHT22;31237;45.586;13.782;2022-08-11T13:49:01;31.50;29.50
45491;DHT22;31237;45.586;13.782;2022-08-11T13:51:28;31.60;29.50
45491;DHT22;31237;45.586;13.782;2022-08-11T13:53:57;31.60;29.30
45491;DHT22;31237;45.586;13.782;2022-08-11T13:56:24;31.60;29.30
45491;DHT22;31237;45.586;13.782;2022-08-11T13:58:51;31.60;29.30
45491;DHT22;31237;45.586;13.782;2022-08-11T14:01:19;31.50;29.20
45491;DHT22;31237;45.586;13.782;2022-08-11T14:03:47;31.60;29.30
45491;DHT22;31237;45.586;13.782;2022-08-11T14:06:14;31.60;29.30
45491;DHT22;31237;45.586;13.782;2022-08-11T14:08:42;31.60;29.40
45491;DHT22;31237;45.586;13.782;2022-08-11T14:11:09;31.70;29.30
45491;DHT22;31237;45.586;13.782;2022-08-11T14:13:54;31.70;29.30
45491;DHT22;31237;45.586;13.782;2022-08-11T14:16:29;31.70;29.30
45491;DHT22;31237;45.586;13.782;2022-08-11T14:19:04;31.70;29.30
45491;DHT22;31237;45.586;13.782;2022-08-11T14:21:37;31.70;29.70
45491;DHT22;31237;45.586;13.782;2022-08-11T14:24:25;31.70;29.20
45491;DHT22;31237;45.586;13.782;2022-08-11T14:26:53;31.70;29.10
45491;DHT22;31237;45.586;13.782;2022-08-11T14:29:20;31.80;29.10
45491;DHT22;31237;45.586;13.782;2022-08-11T14:31:49;31.70;29.00
45491;DHT22;31237;45.586;13.782;2022-08-11T14:34:18;31.60;29.00
45491;DHT22;31237;45.586;13.782;2022-08-11T14:36:52;31.60;29.00
45491;DHT22;31237;45.586;13.782;2022-08-11T14:39:25;31.60;29.00
45491;DHT22;31237;45.586;13.782;2022-08-11T14:42:11;31.50;28.90
45491;DHT22;31237;45.586;13.782;2022-08-11T14:44:59;31.50;28.90
45491;DHT22;31237;45.586;13.782;2022-08-11T14:47:47;31.40;29.10
45491;DHT22;31237;45.586;13.782;2022-08-11T14:50:18;31.30;29.30
45491;DHT22;31237;45.586;13.782;2022-08-11T14:53:09;31.30;29.50
45491;DHT22;31237;45.586;13.782;2022-08-11T14:55:40;31.30;29.40
45491;DHT22;31237;45.586;13.782;2022-08-11T14:58:28;31.20;29.50
45491;DHT22;31237;45.586;13.782;2022-08-11T15:00:57;31.20;29.60
45491;DHT22;31237;45.586;13.782;2022-08-11T15:03:26;31.20;29.80
45491;DHT22;31237;45.586;13.782;2022-08-11T15:05:56;31.20;29.70
45491;DHT22;31237;45.586;13.782;2022-08-11T15:08:31;31.20;29.60
45491;DHT22;31237;45.586;13.782;2022-08-11T15:11:17;31.10;29.60
45491;DHT22;31237;45.586;13.782;2022-08-11T15:14:05;31.10;29.60
45491;DHT22;31237;45.586;13.782;2022-08-11T15:16:31;31.10;29.60
45491;DHT22;31237;45.586;13.782;2022-08-11T15:19:17;31.10;29.60
45491;DHT22;31237;45.586;13.782;2022-08-11T15:21:46;31.10;29.60
45491;DHT22;31237;45.586;13.782;2022-08-11T15:24:30;31.10;29.70
45491;DHT22;31237;45.586;13.782;2022-08-11T15:26:58;31.10;29.80
45491;DHT22;31237;45.586;13.782;2022-08-11T15:29:44;31.10;30.00
45491;DHT22;31237;45.586;13.782;2022-08-11T15:32:30;31.00;30.00
45491;DHT22;31237;45.586;13.782;2022-08-11T15:35:15;30.90;30.20
45491;DHT22;31237;45.586;13.782;2022-08-11T15:38:01;30.90;30.30
45491;DHT22;31237;45.586;13.782;2022-08-11T15:40:30;30.90;30.40
45491;DHT22;31237;45.586;13.782;2022-08-11T15:43:31;30.90;30.30
45491;DHT22;31237;45.586;13.782;2022-08-11T15:46:30;30.80;30.30
45491;DHT22;31237;45.586;13.782;2022-08-11T15:49:11;30.70;30.40
45491;DHT22;31237;45.586;13.782;2022-08-11T15:51:49;30.70;30.40
45491;DHT22;31237;45.586;13.782;2022-08-11T15:54:23;30.70;30.30
45491;DHT22;31237;45.586;13.782;2022-08-11T15:56:52;30.60;30.20
45491;DHT22;31237;45.586;13.782;2022-08-11T15:59:22;30.60;30.20
45491;DHT22;31237;45.586;13.782;2022-08-11T16:02:09;30.60;30.30
45491;DHT22;31237;45.586;13.782;2022-08-11T16:04:57;30.60;30.40
45491;DHT22;31237;45.586;13.782;2022-08-11T16:07:26;30.60;30.40
45491;DHT22;31237;45.586;13.782;2022-08-11T16:10:05;30.50;30.40
45491;DHT22;31237;45.586;13.782;2022-08-11T16:12:39;30.60;30.50
45491;DHT22;31237;45.586;13.782;2022-08-11T16:15:09;30.50;30.70
45491;DHT22;31237;45.586;13.782;2022-08-11T16:18:03;30.50;30.80
45491;DHT22;31237;45.586;13.782;2022-08-11T16:20:30;30.40;30.80
45491;DHT22;31237;45.586;13.782;2022-08-11T16:23:02;30.40;30.90
45491;DHT22;31237;45.586;13.782;2022-08-11T16:25:33;30.40;31.00
45491;DHT22;31237;45.586;13.782;2022-08-11T16:28:02;30.30;31.00
45491;DHT22;31237;45.586;13.782;2022-08-11T16:30:34;30.30;31.10
45491;DHT22;31237;45.586;13.782;2022-08-11T16:33:01;30.30;31.20
45491;DHT22;31237;45.586;13.782;2022-08-11T16:35:32;30.20;31.10
45491;DHT22;31237;45.586;13.782;2022-08-11T16:38:19;30.10;31.00
45491;DHT22;31237;45.586;13.782;2022-08-11T16:41:12;30.10;31.10
45491;DHT22;31237;45.586;13.782;2022-08-11T16:43:41;30.10;31.20
45491;DHT22;31237;45.586;13.782;2022-08-11T16:46:27;30.00;30.80
45491;DHT22;31237;45.586;13.782;2022-08-11T16:49:16;30.00;30.80
45491;DHT22;31237;45.586;13.782;2022-08-11T16:51:43;29.90;30.80
45491;DHT22;31237;45.586;13.782;2022-08-11T16:54:09;29.90;30.70
45491;DHT22;31237;45.586;13.782;2022-08-11T16:56:45;29.80;30.40
45491;DHT22;31237;45.586;13.782;2022-08-11T16:59:21;29.80;30.40
45491;DHT22;31237;45.586;13.782;2022-08-11T17:01:53;29.80;30.50
45491;DHT22;31237;45.586;13.782;2022-08-11T17:07:28;29.70;30.40
45491;DHT22;31237;45.586;13.782;2022-08-11T17:10:29;29.70;30.50
45491;DHT22;31237;45.586;13.782;2022-08-11T17:13:17;29.60;30.50
45491;DHT22;31237;45.586;13.782;2022-08-11T17:15:48;29.50;30.50
45491;DHT22;31237;45.586;13.782;2022-08-11T17:18:56;29.50;30.60
45491;DHT22;31237;45.586;13.782;2022-08-11T17:21:29;29.50;30.70
45491;DHT22;31237;45.586;13.782;2022-08-11T17:24:05;29.60;30.80
45491;DHT22;31237;45.586;13.782;2022-08-11T17:26:39;29.60;30.70
45491;DHT22;31237;45.586;13.782;2022-08-11T17:32:03;29.70;30.80
45491;DHT22;31237;45.586;13.782;2022-08-11T17:34:49;29.80;30.80
45491;DHT22;31237;45.586;13.782;2022-08-11T17:37:36;29.80;30.80
45491;DHT22;31237;45.586;13.782;2022-08-11T17:40:06;29.80;30.80
45491;DHT22;31237;45.586;13.782;2022-08-11T17:42:33;29.80;30.90
45491;DHT22;31237;45.586;13.782;2022-08-11T17:45:20;29.80;30.90
45491;DHT22;31237;45.586;13.782;2022-08-11T17:48:51;29.80;31.10
45491;DHT22;31237;45.586;13.782;2022-08-11T17:51:18;29.70;31.20
45491;DHT22;31237;45.586;13.782;2022-08-11T17:54:04;29.50;31.20
45491;DHT22;31237;45.586;13.782;2022-08-11T17:56:50;29.30;31.40
45491;DHT22;31237;45.586;13.782;2022-08-11T17:59:36;29.10;31.60
45491;DHT22;31237;45.586;13.782;2022-08-11T18:02:37;28.80;31.80
45491;DHT22;31237;45.586;13.782;2022-08-11T18:05:22;28.60;32.20
45491;DHT22;31237;45.586;13.782;2022-08-11T18:07:55;28.30;32.40
45491;DHT22;31237;45.586;13.782;2022-08-11T18:10:40;28.10;32.70
45491;DHT22;31237;45.586;13.782;2022-08-11T18:13:28;27.80;32.80
45491;DHT22;31237;45.586;13.782;2022-08-11T18:16:13;27.70;33.00
45491;DHT22;31237;45.586;13.782;2022-08-11T18:18:58;27.50;33.20
45491;DHT22;31237;45.586;13.782;2022-08-11T18:21:44;27.40;33.30
45491;DHT22;31237;45.586;13.782;2022-08-11T18:24:46;27.20;33.40
45491;DHT22;31237;45.586;13.782;2022-08-11T18:27:33;27.20;33.60
45491;DHT22;31237;45.586;13.782;2022-08-11T18:30:19;27.00;33.60
45491;DHT22;31237;45.586;13.782;2022-08-11T18:33:04;26.90;33.80
45491;DHT22;31237;45.586;13.782;2022-08-11T18:35:53;26.80;33.80
45491;DHT22;31237;45.586;13.782;2022-08-11T18:38:42;26.80;34.00
45491;DHT22;31237;45.586;13.782;2022-08-11T18:41:31;26.70;34.10
45491;DHT22;31237;45.586;13.782;2022-08-11T18:44:19;26.70;34.20
45491;DHT22;31237;45.586;13.782;2022-08-11T18:47:09;26.60;34.20
45491;DHT22;31237;45.586;13.782;2022-08-11T18:49:56;26.50;34.30
45491;DHT22;31237;45.586;13.782;2022-08-11T18:52:44;26.40;34.40
45491;DHT22;31237;45.586;13.782;2022-08-11T18:55:29;26.40;34.50
45491;DHT22;31237;45.586;13.782;2022-08-11T18:58:17;26.30;34.60
45491;DHT22;31237;45.586;13.782;2022-08-11T19:01:03;26.20;34.70
45491;DHT22;31237;45.586;13.782;2022-08-11T19:03:50;26.20;34.80
45491;DHT22;31237;45.586;13.782;2022-08-11T19:06:35;26.10;34.90
45491;DHT22;31237;45.586;13.782;2022-08-11T19:09:22;26.10;35.00
45491;DHT22;31237;45.586;13.782;2022-08-11T19:12:07;26.00;35.10
45491;DHT22;31237;45.586;13.782;2022-08-11T19:14:53;26.00;35.20
45491;DHT22;31237;45.586;13.782;2022-08-11T19:17:41;25.90;35.30
45491;DHT22;31237;45.586;13.782;2022-08-11T19:20:29;25.90;35.50
45491;DHT22;31237;45.586;13.782;2022-08-11T19:23:16;25.80;35.60
45491;DHT22;31237;45.586;13.782;2022-08-11T19:26:02;25.80;35.70
45491;DHT22;31237;45.586;13.782;2022-08-11T19:28:49;25.70;35.80
45491;DHT22;31237;45.586;13.782;2022-08-11T19:31:35;25.60;35.90
45491;DHT22;31237;45.586;13.782;2022-08-11T19:34:22;25.60;36.00
45491;DHT22;31237;45.586;13.782;2022-08-11T19:37:08;25.60;36.20
45491;DHT22;31237;45.586;13.782;2022-08-11T19:40:05;25.50;36.40
45491;DHT22;31237;45.586;13.782;2022-08-11T19:42:50;25.40;36.50
45491;DHT22;31237;45.586;13.782;2022-08-11T19:45:36;25.40;36.80
45491;DHT22;31237;45.586;13.782;2022-08-11T19:48:21;25.40;36.90
45491;DHT22;31237;45.586;13.782;2022-08-11T19:51:08;25.30;37.00
45491;DHT22;31237;45.586;13.782;2022-08-11T19:53:54;25.30;37.10
45491;DHT22;31237;45.586;13.782;2022-08-11T19:56:40;25.20;37.20
45491;DHT22;31237;45.586;13.782;2022-08-11T19:59:25;25.20;37.40
45491;DHT22;31237;45.586;13.782;2022-08-11T20:02:10;25.10;37.40
45491;DHT22;31237;45.586;13.782;2022-08-11T20:04:54;25.10;37.60